sensor_id;sensor_type;location;lat;lon;timestamp;temperature;humidity
25346;DHT22;13300;51.032;3.710;2023-07-02T00:27:03;17.90;99.90
25346;DHT22;13300;51.032;3.710;2023-07-02T00:33:08;17.80;99.90
25346;DHT22;13300;51.032;3.710;2023-07-02T00:36:09;17.90;99.90
25346;DHT22;13300;51.032;3.710;2023-07-02T00:42:20;17.70;99.90
25346;DHT22;13300;51.032;3.710;2023-07-02T01:09:10;17.80;99.90
25346;DHT22;13300;51.032;3.710;2023-07-02T04:46:14;17.50;99.90
25346;DHT22;13300;51.032;3.710;2023-07-02T04:55:53;17.80;99.90
25346;DHT22;13300;51.032;3.710;2023-07-02T05:02:08;18.00;99.90
25346;DHT22;13300;51.032;3.710;2023-07-02T05:11:24;18.20;99.90
25346;DHT22;13300;51.032;3.710;2023-07-02T05:13:53;18.30;99.90
25346;DHT22;13300;51.032;3.710;2023-07-02T05:20:34;18.30;99.90
25346;DHT22;13300;51.032;3.710;2023-07-02T05:55:10;19.20;99.90
25346;DHT22;13300;51.032;3.710;2023-07-02T06:11:35;19.80;99.90
25346;DHT22;13300;51.032;3.710;2023-07-02T06:17:36;20.10;99.90
25346;DHT22;13300;51.032;3.710;2023-07-02T06:20:13;20.20;99.90
25346;DHT22;13300;51.032;3.710;2023-07-02T06:23:05;20.20;99.90
25346;DHT22;13300;51.032;3.710;2023-07-02T06:39:52;20.40;99.90
25346;DHT22;13300;51.032;3.710;2023-07-02T06:49:30;20.80;99.90
25346;DHT22;13300;51.032;3.710;2023-07-02T07:06:17;21.80;99.90
25346;DHT22;13300;51.032;3.710;2023-07-02T07:43:04;23.30;99.90
25346;DHT22;13300;51.032;3.710;2023-07-02T08:40:32;25.20;99.90
25346;DHT22;13300;51.032;3.710;2023-07-02T08:46:54;24.10;99.90
25346;DHT22;13300;51.032;3.710;2023-07-02T09:21:42;24.10;99.90
25346;DHT22;13300;51.032;3.710;2023-07-02T09:24:20;24.00;99.90
25346;DHT22;13300;51.032;3.710;2023-07-02T09:26:51;23.90;99.90
25346;DHT22;13300;51.032;3.710;2023-07-02T09:29:28;23.20;99.90
25346;DHT22;13300;51.032;3.710;2023-07-02T09:32:02;22.80;99.90
25346;DHT22;13300;51.032;3.710;2023-07-02T09:34:30;23.10;99.90
25346;DHT22;13300;51.032;3.710;2023-07-02T09:36:57;23.50;99.90
25346;DHT22;13300;51.032;3.710;2023-07-02T09:39:53;23.40;99.90
25346;DHT22;13300;51.032;3.710;2023-07-02T09:42:25;23.40;99.90
25346;DHT22;13300;51.032;3.710;2023-07-02T09:44:58;23.60;99.90
25346;DHT22;13300;51.032;3.710;2023-07-02T09:47:28;24.60;99.90
25346;DHT22;13300;51.032;3.710;2023-07-02T09:49:57;25.80;99.90
25346;DHT22;13300;51.032;3.710;2023-07-02T09:52:25;26.40;99.10
25346;DHT22;13300;51.032;3.710;2023-07-02T09:55:00;26.30;99.30
25346;DHT22;13300;51.032;3.710;2023-07-02T09:57:29;25.80;98.10
25346;DHT22;13300;51.032;3.710;2023-07-02T09:59:58;25.30;98.30
25346;DHT22;13300;51.032;3.710;2023-07-02T10:02:24;25.70;94.60
25346;DHT22;13300;51.032;3.710;2023-07-02T10:04:50;27.00;93.30
25346;DHT22;13300;51.032;3.710;2023-07-02T10:07:31;27.50;91.50
25346;DHT22;13300;51.032;3.710;2023-07-02T10:10:03;27.30;90.70
25346;DHT22;13300;51.032;3.710;2023-07-02T10:12:30;27.80;90.60
25346;DHT22;13300;51.032;3.710;2023-07-02T10:14:58;28.70;90.00
25346;DHT22;13300;51.032;3.710;2023-07-02T10:17:53;29.20;86.10
25346;DHT22;13300;51.032;3.710;2023-07-02T10:20:31;30.30;87.50
25346;DHT22;13300;51.032;3.710;2023-07-02T10:22:58;31.10;79.40
25346;DHT22;13300;51.032;3.710;2023-07-02T10:25:25;32.00;77.20
25346;DHT22;13300;51.032;3.710;2023-07-02T10:27:51;32.00;74.60
25346;DHT22;13300;51.032;3.710;2023-07-02T10:30:17;31.90;76.10
25346;DHT22;13300;51.032;3.710;2023-07-02T10:32:43;30.80;76.20
25346;DHT22;13300;51.032;3.710;2023-07-02T10:35:16;29.50;77.20
25346;DHT22;13300;51.032;3.710;2023-07-02T10:37:42;27.70;80.10
25346;DHT22;13300;51.032;3.710;2023-07-02T10:40:10;26.60;83.30
25346;DHT22;13300;51.032;3.710;2023-07-02T10:42:48;25.70;85.10
25346;DHT22;13300;51.032;3.710;2023-07-02T10:45:15;25.20;87.40
25346;DHT22;13300;51.032;3.710;2023-07-02T10:47:41;24.70;89.50
25346;DHT22;13300;51.032;3.710;2023-07-02T10:50:18;24.20;90.50
25346;DHT22;13300;51.032;3.710;2023-07-02T10:52:45;24.00;91.60
25346;DHT22;13300;51.032;3.710;2023-07-02T10:55:17;25.00;90.70
25346;DHT22;13300;51.032;3.710;2023-07-02T10:57:45;26.50;88.60
25346;DHT22;13300;51.032;3.710;2023-07-02T11:00:12;28.50;83.90
25346;DHT22;13300;51.032;3.710;2023-07-02T11:02:38;29.50;79.80
25346;DHT22;13300;51.032;3.710;2023-07-02T11:05:07;30.00;78.90
25346;DHT22;13300;51.032;3.710;2023-07-02T11:07:41;30.00;76.60
25346;DHT22;13300;51.032;3.710;2023-07-02T11:10:08;29.00;78.60
25346;DHT22;13300;51.032;3.710;2023-07-02T11:12:35;28.00;81.80
25346;DHT22;13300;51.032;3.710;2023-07-02T11:15:11;27.50;83.70
25346;DHT22;13300;51.032;3.710;2023-07-02T11:17:38;27.80;82.70
25346;DHT22;13300;51.032;3.710;2023-07-02T11:20:07;28.50;80.90
25346;DHT22;13300;51.032;3.710;2023-07-02T11:22:35;29.20;80.90
25346;DHT22;13300;51.032;3.710;2023-07-02T11:25:20;28.50;80.10
25346;DHT22;13300;51.032;3.710;2023-07-02T11:27:49;28.00;81.70
25346;DHT22;13300;51.032;3.710;2023-07-02T11:30:14;27.50;83.70
25346;DHT22;13300;51.032;3.710;2023-07-02T11:32:51;26.50;83.70
25346;DHT22;13300;51.032;3.710;2023-07-02T11:35:18;25.90;86.80
25346;DHT22;13300;51.032;3.710;2023-07-02T11:37:44;25.80;87.30
25346;DHT22;13300;51.032;3.710;2023-07-02T11:40:11;26.70;87.30
25346;DHT22;13300;51.032;3.710;2023-07-02T11:42:37;27.90;83.10
25346;DHT22;13300;51.032;3.710;2023-07-02T11:45:06;27.90;83.70
25346;DHT22;13300;51.032;3.710;2023-07-02T11:47:32;27.60;82.70
25346;DHT22;13300;51.032;3.710;2023-07-02T11:49:58;27.10;83.80
25346;DHT22;13300;51.032;3.710;2023-07-02T11:52:29;26.60;85.60
25346;DHT22;13300;51.032;3.710;2023-07-02T11:54:59;26.20;86.10
25346;DHT22;13300;51.032;3.710;2023-07-02T11:57:31;26.50;87.70
25346;DHT22;13300;51.032;3.710;2023-07-02T12:00:00;28.00;83.50
25346;DHT22;13300;51.032;3.710;2023-07-02T12:02:39;29.20;81.90
25346;DHT22;13300;51.032;3.710;2023-07-02T12:05:25;28.90;80.10
25346;DHT22;13300;51.032;3.710;2023-07-02T12:07:57;28.00;81.90
25346;DHT22;13300;51.032;3.710;2023-07-02T12:10:43;27.00;83.70
25346;DHT22;13300;51.032;3.710;2023-07-02T12:13:11;27.80;88.00
25346;DHT22;13300;51.032;3.710;2023-07-02T12:15:37;29.40;80.80
25346;DHT22;13300;51.032;3.710;2023-07-02T12:18:24;30.70;76.60
25346;DHT22;13300;51.032;3.710;2023-07-02T12:20:52;30.00;77.10
25346;DHT22;13300;51.032;3.710;2023-07-02T12:23:18;29.30;77.00
25346;DHT22;13300;51.032;3.710;2023-07-02T12:25:44;28.50;78.70
25346;DHT22;13300;51.032;3.710;2023-07-02T12:28:09;28.30;81.30
25346;DHT22;13300;51.032;3.710;2023-07-02T12:30:35;28.90;80.60
25346;DHT22;13300;51.032;3.710;2023-07-02T12:33:01;29.90;77.50
25346;DHT22;13300;51.032;3.710;2023-07-02T12:35:27;30.70;76.30
25346;DHT22;13300;51.032;3.710;2023-07-02T12:37:53;30.80;75.70
25346;DHT22;13300;51.032;3.710;2023-07-02T12:40:22;30.40;74.90
25346;DHT22;13300;51.032;3.710;2023-07-02T12:42:50;30.10;74.50
25346;DHT22;13300;51.032;3.710;2023-07-02T12:48:48;30.40;76.50
25346;DHT22;13300;51.032;3.710;2023-07-02T12:51:14;30.90;75.60
25346;DHT22;13300;51.032;3.710;2023-07-02T12:53:40;31.70;74.60
25346;DHT22;13300;51.032;3.710;2023-07-02T12:56:06;32.00;73.30
25346;DHT22;13300;51.032;3.710;2023-07-02T12:58:32;31.30;74.40
25346;DHT22;13300;51.032;3.710;2023-07-02T13:01:00;30.70;73.70
25346;DHT22;13300;51.032;3.710;2023-07-02T13:03:49;30.30;73.50
25346;DHT22;13300;51.032;3.710;2023-07-02T13:06:18;29.80;75.50
25346;DHT22;13300;51.032;3.710;2023-07-02T13:08:44;30.00;74.50
25346;DHT22;13300;51.032;3.710;2023-07-02T13:11:10;30.80;72.50
25346;DHT22;13300;51.032;3.710;2023-07-02T13:13:36;31.60;74.40
25346;DHT22;13300;51.032;3.710;2023-07-02T13:16:02;32.20;69.90
25346;DHT22;13300;51.032;3.710;2023-07-02T13:18:47;31.80;70.20
25346;DHT22;13300;51.032;3.710;2023-07-02T13:21:16;31.10;70.10
25346;DHT22;13300;51.032;3.710;2023-07-02T13:23:44;30.40;72.50
25346;DHT22;13300;51.032;3.710;2023-07-02T13:26:10;30.60;71.60
25346;DHT22;13300;51.032;3.710;2023-07-02T13:28:36;30.70;72.40
25346;DHT22;13300;51.032;3.710;2023-07-02T13:31:01;30.00;70.90
25346;DHT22;13300;51.032;3.710;2023-07-02T13:33:46;28.80;73.30
25346;DHT22;13300;51.032;3.710;2023-07-02T13:36:32;27.80;75.30
25346;DHT22;13300;51.032;3.710;2023-07-02T13:39:01;26.90;77.30
25346;DHT22;13300;51.032;3.710;2023-07-02T13:41:28;27.70;76.70
25346;DHT22;13300;51.032;3.710;2023-07-02T13:43:56;27.60;76.60
25346;DHT22;13300;51.032;3.710;2023-07-02T13:46:22;27.50;77.40
25346;DHT22;13300;51.032;3.710;2023-07-02T13:48:48;28.10;79.20
25346;DHT22;13300;51.032;3.710;2023-07-02T13:51:13;29.00;75.50
25346;DHT22;13300;51.032;3.710;2023-07-02T13:53:39;29.80;77.40
25346;DHT22;13300;51.032;3.710;2023-07-02T13:56:05;30.00;74.20
25346;DHT22;13300;51.032;3.710;2023-07-02T14:01:22;28.30;74.40
25346;DHT22;13300;51.032;3.710;2023-07-02T14:03:48;27.90;75.40
25346;DHT22;13300;51.032;3.710;2023-07-02T14:06:14;28.70;77.20
25346;DHT22;13300;51.032;3.710;2023-07-02T14:08:41;29.80;75.30
25346;DHT22;13300;51.032;3.710;2023-07-02T14:11:09;30.10;72.90
25346;DHT22;13300;51.032;3.710;2023-07-02T14:13:43;29.50;73.80
25346;DHT22;13300;51.032;3.710;2023-07-02T14:16:12;28.70;74.10
25346;DHT22;13300;51.032;3.710;2023-07-02T14:18:40;27.50;76.90
25346;DHT22;13300;51.032;3.710;2023-07-02T14:21:08;27.00;78.10
25346;DHT22;13300;51.032;3.710;2023-07-02T14:23:33;26.70;79.20
25346;DHT22;13300;51.032;3.710;2023-07-02T14:25:59;26.50;80.60
25346;DHT22;13300;51.032;3.710;2023-07-02T14:28:25;26.40;80.10
25346;DHT22;13300;51.032;3.710;2023-07-02T14:31:04;26.50;80.40
25346;DHT22;13300;51.032;3.710;2023-07-02T14:33:35;26.20;81.50
25346;DHT22;13300;51.032;3.710;2023-07-02T14:36:05;25.80;82.30
25346;DHT22;13300;51.032;3.710;2023-07-02T14:38:34;26.30;83.10
25346;DHT22;13300;51.032;3.710;2023-07-02T14:41:03;27.10;83.20
25346;DHT22;13300;51.032;3.710;2023-07-02T14:43:30;27.70;78.90
25346;DHT22;13300;51.032;3.710;2023-07-02T14:46:05;28.00;78.50
25346;DHT22;13300;51.032;3.710;2023-07-02T14:48:31;28.60;76.70
25346;DHT22;13300;51.032;3.710;2023-07-02T14:51:01;29.30;76.20
25346;DHT22;13300;51.032;3.710;2023-07-02T14:53:29;29.40;74.90
25346;DHT22;13300;51.032;3.710;2023-07-02T14:56:00;29.00;74.70
25346;DHT22;13300;51.032;3.710;2023-07-02T14:58:32;29.00;75.00
25346;DHT22;13300;51.032;3.710;2023-07-02T15:01:02;28.20;76.80
25346;DHT22;13300;51.032;3.710;2023-07-02T15:03:28;27.20;78.80
25346;DHT22;13300;51.032;3.710;2023-07-02T15:08:35;26.50;80.10
25346;DHT22;13300;51.032;3.710;2023-07-02T15:11:11;26.30;80.70
25346;DHT22;13300;51.032;3.710;2023-07-02T15:13:39;26.50;80.70
25346;DHT22;13300;51.032;3.710;2023-07-02T15:16:07;27.40;80.20
25346;DHT22;13300;51.032;3.710;2023-07-02T15:18:33;28.40;78.00
25346;DHT22;13300;51.032;3.710;2023-07-02T15:20:59;29.10;77.60
25346;DHT22;13300;51.032;3.710;2023-07-02T15:23:28;29.10;75.30
25346;DHT22;13300;51.032;3.710;2023-07-02T15:26:00;28.60;77.30
25346;DHT22;13300;51.032;3.710;2023-07-02T15:28:30;28.50;77.70
25346;DHT22;13300;51.032;3.710;2023-07-02T15:38:09;27.70;77.70
25346;DHT22;13300;51.032;3.710;2023-07-02T15:40:41;27.50;79.20
25346;DHT22;13300;51.032;3.710;2023-07-02T15:43:11;27.00;79.10
25346;DHT22;13300;51.032;3.710;2023-07-02T15:45:42;26.60;81.10
25346;DHT22;13300;51.032;3.710;2023-07-02T15:48:08;27.00;78.40
25346;DHT22;13300;51.032;3.710;2023-07-02T15:50:54;27.40;78.00
25346;DHT22;13300;51.032;3.710;2023-07-02T15:53:23;26.90;78.10
25346;DHT22;13300;51.032;3.710;2023-07-02T15:55:59;26.70;80.50
25346;DHT22;13300;51.032;3.710;2023-07-02T15:58:29;25.40;80.90
25346;DHT22;13300;51.032;3.710;2023-07-02T16:01:15;24.90;83.20
25346;DHT22;13300;51.032;3.710;2023-07-02T16:03:42;25.00;84.10
25346;DHT22;13300;51.032;3.710;2023-07-02T16:06:09;25.30;83.70
25346;DHT22;13300;51.032;3.710;2023-07-02T16:08:36;25.70;83.40
25346;DHT22;13300;51.032;3.710;2023-07-02T16:11:05;26.30;81.10
25346;DHT22;13300;51.032;3.710;2023-07-02T16:13:31;25.90;81.70
25346;DHT22;13300;51.032;3.710;2023-07-02T16:15:57;26.00;82.30
25346;DHT22;13300;51.032;3.710;2023-07-02T16:18:28;26.30;81.70
25346;DHT22;13300;51.032;3.710;2023-07-02T16:20:58;26.30;80.50
25346;DHT22;13300;51.032;3.710;2023-07-02T16:23:24;26.20;80.70
25346;DHT22;13300;51.032;3.710;2023-07-02T16:25:54;25.90;81.90
25346;DHT22;13300;51.032;3.710;2023-07-02T16:28:20;25.90;81.80
25346;DHT22;13300;51.032;3.710;2023-07-02T16:30:46;25.90;81.10
25346;DHT22;13300;51.032;3.710;2023-07-02T16:33:13;26.10;81.00
25346;DHT22;13300;51.032;3.710;2023-07-02T16:35:38;25.60;82.30
25346;DHT22;13300;51.032;3.710;2023-07-02T16:38:04;25.50;83.80
25346;DHT22;13300;51.032;3.710;2023-07-02T16:40:30;25.40;83.90
25346;DHT22;13300;51.032;3.710;2023-07-02T16:42:56;25.30;83.10
25346;DHT22;13300;51.032;3.710;2023-07-02T16:45:22;25.20;82.90
25346;DHT22;13300;51.032;3.710;2023-07-02T16:47:47;24.80;83.80
25346;DHT22;13300;51.032;3.710;2023-07-02T16:50:13;24.10;85.10
25346;DHT22;13300;51.032;3.710;2023-07-02T16:52:39;23.80;86.80
25346;DHT22;13300;51.032;3.710;2023-07-02T16:55:05;23.80;87.00
25346;DHT22;13300;51.032;3.710;2023-07-02T16:57:30;23.70;86.80
25346;DHT22;13300;51.032;3.710;2023-07-02T16:59:56;23.30;87.20
25346;DHT22;13300;51.032;3.710;2023-07-02T17:02:21;23.00;88.10
25346;DHT22;13300;51.032;3.710;2023-07-02T17:04:47;22.90;88.60
25346;DHT22;13300;51.032;3.710;2023-07-02T17:07:13;23.00;87.60
25346;DHT22;13300;51.032;3.710;2023-07-02T17:09:39;23.10;87.70
25346;DHT22;13300;51.032;3.710;2023-07-02T17:12:10;23.10;87.50
25346;DHT22;13300;51.032;3.710;2023-07-02T17:14:37;22.70;89.20
25346;DHT22;13300;51.032;3.710;2023-07-02T17:17:14;22.50;89.80
25346;DHT22;13300;51.032;3.710;2023-07-02T17:19:45;22.20;90.50
25346;DHT22;13300;51.032;3.710;2023-07-02T17:22:17;22.20;90.60
25346;DHT22;13300;51.032;3.710;2023-07-02T17:24:45;22.20;90.60
25346;DHT22;13300;51.032;3.710;2023-07-02T17:27:14;22.30;91.20
25346;DHT22;13300;51.032;3.710;2023-07-02T17:29:41;22.40;90.60
25346;DHT22;13300;51.032;3.710;2023-07-02T17:32:09;22.60;90.70
25346;DHT22;13300;51.032;3.710;2023-07-02T17:34:36;22.50;90.70
25346;DHT22;13300;51.032;3.710;2023-07-02T17:37:05;22.30;91.00
25346;DHT22;13300;51.032;3.710;2023-07-02T17:39:32;21.90;91.40
25346;DHT22;13300;51.032;3.710;2023-07-02T17:41:59;22.00;91.30
25346;DHT22;13300;51.032;3.710;2023-07-02T17:44:34;22.00;91.40
25346;DHT22;13300;51.032;3.710;2023-07-02T17:47:02;22.00;91.00
25346;DHT22;13300;51.032;3.710;2023-07-02T17:49:30;21.90;91.30
25346;DHT22;13300;51.032;3.710;2023-07-02T17:51:57;21.80;91.40
25346;DHT22;13300;51.032;3.710;2023-07-02T17:54:23;21.70;91.30
25346;DHT22;13300;51.032;3.710;2023-07-02T17:56:51;21.80;91.60
25346;DHT22;13300;51.032;3.710;2023-07-02T17:59:17;21.90;91.30
25346;DHT22;13300;51.032;3.710;2023-07-02T18:01:46;21.70;92.00
25346;DHT22;13300;51.032;3.710;2023-07-02T18:04:12;21.40;91.50
25346;DHT22;13300;51.032;3.710;2023-07-02T18:06:42;21.20;91.90
25346;DHT22;13300;51.032;3.710;2023-07-02T18:09:08;21.10;92.60
25346;DHT22;13300;51.032;3.710;2023-07-02T18:11:34;20.90;93.20
25346;DHT22;13300;51.032;3.710;2023-07-02T18:14:00;20.70;93.70
25346;DHT22;13300;51.032;3.710;2023-07-02T18:16:26;20.70;93.00
25346;DHT22;13300;51.032;3.710;2023-07-02T18:18:52;20.60;93.40
25346;DHT22;13300;51.032;3.710;2023-07-02T18:21:18;20.60;93.60
25346;DHT22;13300;51.032;3.710;2023-07-02T18:23:43;20.50;93.90
25346;DHT22;13300;51.032;3.710;2023-07-02T18:26:09;20.40;94.40
25346;DHT22;13300;51.032;3.710;2023-07-02T18:28:35;20.40;94.60
25346;DHT22;13300;51.032;3.710;2023-07-02T18:31:01;20.20;95.30
25346;DHT22;13300;51.032;3.710;2023-07-02T18:33:30;20.10;95.10
25346;DHT22;13300;51.032;3.710;2023-07-02T18:35:56;20.20;95.30
25346;DHT22;13300;51.032;3.710;2023-07-02T18:38:23;20.00;95.50
25346;DHT22;13300;51.032;3.710;2023-07-02T18:40:59;19.90;95.70
25346;DHT22;13300;51.032;3.710;2023-07-02T18:43:26;20.10;95.80
25346;DHT22;13300;51.032;3.710;2023-07-02T18:45:52;20.00;96.00
25346;DHT22;13300;51.032;3.710;2023-07-02T18:48:18;20.00;96.10
25346;DHT22;13300;51.032;3.710;2023-07-02T18:50:46;19.90;96.20
25346;DHT22;13300;51.032;3.710;2023-07-02T18:53:11;19.90;96.50
25346;DHT22;13300;51.032;3.710;2023-07-02T18:55:37;19.80;96.80
25346;DHT22;13300;51.032;3.710;2023-07-02T18:58:03;19.70;97.30
25346;DHT22;13300;51.032;3.710;2023-07-02T19:00:28;19.60;97.70
25346;DHT22;13300;51.032;3.710;2023-07-02T19:02:54;19.50;98.50
25346;DHT22;13300;51.032;3.710;2023-07-02T19:05:20;19.40;98.90
25346;DHT22;13300;51.032;3.710;2023-07-02T19:07:46;19.40;99.20
25346;DHT22;13300;51.032;3.710;2023-07-02T19:10:12;19.40;99.80
25346;DHT22;13300;51.032;3.710;2023-07-02T19:12:38;19.40;99.80
25346;DHT22;13300;51.032;3.710;2023-07-02T19:15:04;19.40;99.90
25346;DHT22;13300;51.032;3.710;2023-07-02T19:17:30;19.40;99.90
25346;DHT22;13300;51.032;3.710;2023-07-02T19:19:56;19.50;99.90
25346;DHT22;13300;51.032;3.710;2023-07-02T19:22:22;19.50;99.90
25346;DHT22;13300;51.032;3.710;2023-07-02T19:24:48;19.30;99.90
25346;DHT22;13300;51.032;3.710;2023-07-02T19:27:14;19.00;99.90
25346;DHT22;13300;51.032;3.710;2023-07-02T19:29:41;19.00;99.90
25346;DHT22;13300;51.032;3.710;2023-07-02T19:32:07;19.00;99.90
25346;DHT22;13300;51.032;3.710;2023-07-02T19:34:34;18.90;99.90
25346;DHT22;13300;51.032;3.710;2023-07-02T19:36:59;18.90;99.90
25346;DHT22;13300;51.032;3.710;2023-07-02T19:39:25;18.90;99.90
25346;DHT22;13300;51.032;3.710;2023-07-02T19:41:51;18.90;99.90
25346;DHT22;13300;51.032;3.710;2023-07-02T19:44:19;18.90;99.90
25346;DHT22;13300;51.032;3.710;2023-07-02T19:46:45;19.00;99.90
25346;DHT22;13300;51.032;3.710;2023-07-02T19:49:13;18.90;99.90
25346;DHT22;13300;51.032;3.710;2023-07-02T19:51:39;18.90;99.90
25346;DHT22;13300;51.032;3.710;2023-07-02T19:54:12;18.80;99.90
25346;DHT22;13300;51.032;3.710;2023-07-02T19:56:39;18.90;99.90
25346;DHT22;13300;51.032;3.710;2023-07-02T19:59:04;18.90;99.90
25346;DHT22;13300;51.032;3.710;2023-07-02T20:01:37;18.90;99.90
25346;DHT22;13300;51.032;3.710;2023-07-02T20:04:15;18.90;99.90
25346;DHT22;13300;51.032;3.710;2023-07-02T20:06:43;18.90;99.90
25346;DHT22;13300;51.032;3.710;2023-07-02T20:09:08;18.90;99.90
25346;DHT22;13300;51.032;3.710;2023-07-02T20:11:34;18.90;99.90
25346;DHT22;13300;51.032;3.710;2023-07-02T20:14:00;19.00;99.90
25346;DHT22;13300;51.032;3.710;2023-07-02T20:16:25;18.90;99.90
25346;DHT22;13300;51.032;3.710;2023-07-02T20:19:07;18.70;99.90
25346;DHT22;13300;51.032;3.710;2023-07-02T20:21:38;18.70;99.90
25346;DHT22;13300;51.032;3.710;2023-07-02T20:24:05;18.60;99.90
25346;DHT22;13300;51.032;3.710;2023-07-02T20:26:31;18.50;99.90
25346;DHT22;13300;51.032;3.710;2023-07-02T20:28:59;18.30;99.90
25346;DHT22;13300;51.032;3.710;2023-07-02T20:31:25;18.20;99.90
25346;DHT22;13300;51.032;3.710;2023-07-02T20:33:52;18.10;99.90
25346;DHT22;13300;51.032;3.710;2023-07-02T20:36:19;18.10;99.90
25346;DHT22;13300;51.032;3.710;2023-07-02T20:38:48;18.10;99.90
25346;DHT22;13300;51.032;3.710;2023-07-02T20:41:14;18.10;99.90
25346;DHT22;13300;51.032;3.710;2023-07-02T20:43:42;18.00;99.90
25346;DHT22;13300;51.032;3.710;2023-07-02T20:46:14;18.10;99.90
25346;DHT22;13300;51.032;3.710;2023-07-02T20:48:40;18.00;99.90
25346;DHT22;13300;51.032;3.710;2023-07-02T20:51:11;18.00;99.90
25346;DHT22;13300;51.032;3.710;2023-07-02T20:53:37;18.00;99.90
25346;DHT22;13300;51.032;3.710;2023-07-02T20:56:03;17.80;99.90
25346;DHT22;13300;51.032;3.710;2023-07-02T20:58:28;17.70;99.90
25346;DHT22;13300;51.032;3.710;2023-07-02T21:01:04;17.70;99.90
25346;DHT22;13300;51.032;3.710;2023-07-02T21:03:31;17.70;99.90
25346;DHT22;13300;51.032;3.710;2023-07-02T21:05:56;17.80;99.90
25346;DHT22;13300;51.032;3.710;2023-07-02T21:08:24;17.80;99.90
25346;DHT22;13300;51.032;3.710;2023-07-02T21:10:50;17.80;99.90
25346;DHT22;13300;51.032;3.710;2023-07-02T21:13:16;17.80;99.90
25346;DHT22;13300;51.032;3.710;2023-07-02T21:15:56;17.60;99.90
25346;DHT22;13300;51.032;3.710;2023-07-02T21:18:22;17.70;99.90
25346;DHT22;13300;51.032;3.710;2023-07-02T21:20:48;17.60;99.90
25346;DHT22;13300;51.032;3.710;2023-07-02T21:23:17;17.60;99.90
25346;DHT22;13300;51.032;3.710;2023-07-02T21:25:42;17.60;99.90
25346;DHT22;13300;51.032;3.710;2023-07-02T21:28:08;17.50;99.90
25346;DHT22;13300;51.032;3.710;2023-07-02T21:30:34;17.50;99.90
25346;DHT22;13300;51.032;3.710;2023-07-02T21:32:59;17.50;99.90
25346;DHT22;13300;51.032;3.710;2023-07-02T21:35:29;17.60;99.90
25346;DHT22;13300;51.032;3.710;2023-07-02T21:37:55;17.60;99.90
25346;DHT22;13300;51.032;3.710;2023-07-02T21:40:21;17.50;99.90
25346;DHT22;13300;51.032;3.710;2023-07-02T21:42:47;17.50;99.90
25346;DHT22;13300;51.032;3.710;2023-07-02T21:45:13;17.50;99.90
25346;DHT22;13300;51.032;3.710;2023-07-02T21:47:38;17.50;99.90
25346;DHT22;13300;51.032;3.710;2023-07-02T21:50:04;17.50;99.90
25346;DHT22;13300;51.032;3.710;2023-07-02T21:52:30;17.20;99.90
25346;DHT22;13300;51.032;3.710;2023-07-02T21:54:56;17.30;99.90
25346;DHT22;13300;51.032;3.710;2023-07-02T21:57:21;17.30;99.90
25346;DHT22;13300;51.032;3.710;2023-07-02T21:59:47;17.20;99.90
25346;DHT22;13300;51.032;3.710;2023-07-02T22:02:13;17.20;99.90
25346;DHT22;13300;51.032;3.710;2023-07-02T22:04:38;17.20;99.90
25346;DHT22;13300;51.032;3.710;2023-07-02T22:07:05;17.10;99.90
25346;DHT22;13300;51.032;3.710;2023-07-02T22:09:32;17.00;99.90
25346;DHT22;13300;51.032;3.710;2023-07-02T22:11:58;16.90;99.90
25346;DHT22;13300;51.032;3.710;2023-07-02T22:14:24;16.90;99.90
25346;DHT22;13300;51.032;3.710;2023-07-02T22:16:49;16.80;99.90
25346;DHT22;13300;51.032;3.710;2023-07-02T22:19:15;16.80;99.90
25346;DHT22;13300;51.032;3.710;2023-07-02T22:21:41;16.70;99.90
25346;DHT22;13300;51.032;3.710;2023-07-02T22:24:10;16.70;99.90
25346;DHT22;13300;51.032;3.710;2023-07-02T22:26:37;16.70;99.90
25346;DHT22;13300;51.032;3.710;2023-07-02T22:29:02;16.60;99.90
25346;DHT22;13300;51.032;3.710;2023-07-02T22:31:29;16.60;99.90
25346;DHT22;13300;51.032;3.710;2023-07-02T22:33:54;16.70;99.90
25346;DHT22;13300;51.032;3.710;2023-07-02T22:36:20;16.70;99.90
25346;DHT22;13300;51.032;3.710;2023-07-02T22:38:46;16.80;99.90
25346;DHT22;13300;51.032;3.710;2023-07-02T22:41:12;16.80;99.90
25346;DHT22;13300;51.032;3.710;2023-07-02T22:43:38;16.70;99.90
25346;DHT22;13300;51.032;3.710;2023-07-02T22:46:04;16.70;99.90
25346;DHT22;13300;51.032;3.710;2023-07-02T22:48:29;16.60;99.90
25346;DHT22;13300;51.032;3.710;2023-07-02T22:50:56;16.60;99.90
25346;DHT22;13300;51.032;3.710;2023-07-02T22:53:22;16.50;99.90
25346;DHT22;13300;51.032;3.710;2023-07-02T22:55:49;16.50;99.90
25346;DHT22;13300;51.032;3.710;2023-07-02T22:58:15;16.60;99.90
25346;DHT22;13300;51.032;3.710;2023-07-02T23:00:40;16.60;99.90
25346;DHT22;13300;51.032;3.710;2023-07-02T23:03:06;16.60;99.90
25346;DHT22;13300;51.032;3.710;2023-07-02T23:05:32;16.60;99.90
25346;DHT22;13300;51.032;3.710;2023-07-02T23:07:57;16.60;99.90
25346;DHT22;13300;51.032;3.710;2023-07-02T23:10:23;16.60;99.90
25346;DHT22;13300;51.032;3.710;2023-07-02T23:12:50;16.40;99.90
25346;DHT22;13300;51.032;3.710;2023-07-02T23:15:18;16.30;99.90
25346;DHT22;13300;51.032;3.710;2023-07-02T23:17:49;16.20;99.90
25346;DHT22;13300;51.032;3.710;2023-07-02T23:20:16;16.30;99.90
25346;DHT22;13300;51.032;3.710;2023-07-02T23:22:44;16.20;99.90
25346;DHT22;13300;51.032;3.710;2023-07-02T23:25:14;16.30;99.90
25346;DHT22;13300;51.032;3.710;2023-07-02T23:27:42;16.20;99.90
25346;DHT22;13300;51.032;3.710;2023-07-02T23:30:13;16.30;99.90
25346;DHT22;13300;51.032;3.710;2023-07-02T23:32:43;16.40;99.90
25346;DHT22;13300;51.032;3.710;2023-07-02T23:35:09;16.30;99.90
25346;DHT22;13300;51.032;3.710;2023-07-02T23:37:36;16.20;99.90
25346;DHT22;13300;51.032;3.710;2023-07-02T23:40:07;16.20;99.90
25346;DHT22;13300;51.032;3.710;2023-07-02T23:42:42;16.10;99.90
25346;DHT22;13300;51.032;3.710;2023-07-02T23:45:09;16.10;99.90
25346;DHT22;13300;51.032;3.710;2023-07-02T23:47:36;16.10;99.90
25346;DHT22;13300;51.032;3.710;2023-07-02T23:50:01;16.10;99.90
25346;DHT22;13300;51.032;3.710;2023-07-02T23:52:27;16.00;99.90
25346;DHT22;13300;51.032;3.710;2023-07-02T23:54:53;15.90;99.90
25346;DHT22;13300;51.032;3.710;2023-07-02T23:57:19;16.00;99.90
25346;DHT22;13300;51.032;3.710;2023-07-02T23:59:45;16.00;99.90
